Latest Coastal Weather Observations for Kingscote

IDS60701

Issued at 7:21 pm CST Thursday 25 August 2016 (issued every 10 minutes, with the page automatically refreshed every 10 minutes)

About coastal observations | Map of coastal stations | Coastal observations for SA | Marine services | Other Formats
Station Details ID: 022841 Name: KINGSCOTE AERO Lat: -35.71 Lon: 137.52 Height: 6.23 m
Data from the previous 72 hours. | See also: Recent months at Kingscote
Date/Time
CST
Temp
°C
Wind Pressure Rain since
9am
mm
Weather Cloud Vis
km
Sea
Height
m
Swell
Dir  Spd
kts
Gust
kts
hPa Trend Height
m
Period
s
Dir
25/07:00pm 7.6 WSW 5 6 1022.7 - 0.6 - - 10 - - - -
25/06:30pm 8.8 SSW 6 7 1022.2 - 0.4 - - 10 - - - -
25/06:00pm 10.3 SSW 7 9 1022.0 - 0.4 Recent precip. Mostly cloudy 10 - - - -
25/05:30pm 11.3 S 9 15 1021.8 - 0.2 - Partly cloudy 10 - - - -
25/05:00pm 12.1 S 8 11 1021.4 - 0.2 - Partly cloudy 10 - - - -
25/04:30pm 12.4 S 9 12 1021.2 - 0.2 - Partly cloudy 10 - - - -
25/04:00pm 13.1 SSW 10 14 1021.0 - 0.2 - Partly cloudy 10 - - - -
25/03:30pm 13.3 S 14 19 1020.9 - 0.2 - Partly cloudy 10 - - - -
25/03:00pm 14.6 SW 12 17 1020.5 - 0.2 - Mostly cloudy 10 - - - -
25/02:30pm 15.0 SSW 8 12 1020.3 - 0.2 - Partly cloudy 10 - - - -
25/02:00pm 14.9 S 9 14 1020.1 - 0.2 - Partly cloudy 10 - - - -
25/01:30pm 13.8 S 10 16 1020.3 - 0.2 - Partly cloudy 10 - - - -
25/01:00pm 14.6 SSW 10 15 1020.5 - 0.0 - - 10 - - - -
25/12:30pm 15.3 S 7 12 1020.7 - 0.0 - Partly cloudy 10 - - - -
25/12:00pm 14.0 SSW 8 11 1020.9 - 0.0 - Mostly clear 10 - - - -
25/11:30am 13.6 S 5 11 1021.1 - 0.0 - Partly cloudy 10 - - - -
25/11:00am 13.3 SSW 8 13 1021.2 - 0.0 - Partly cloudy 10 - - - -
25/10:30am 13.3 SSW 8 11 1021.2 - 0.0 - Partly cloudy 10 - - - -
25/10:00am 12.6 SSE 7 11 1021.1 - 0.0 - Partly cloudy 10 - - - -
25/09:30am 10.9 SSW 4 6 1021.0 - 0.0 - Partly cloudy 10 - - - -
25/09:00am 9.1 SW 4 5 1020.8 - 0.0 - Mostly clear 10 - - - -
25/08:30am 7.1 CALM 0 0 1020.5 - 0.0 - Partly cloudy 10 - - - -
25/08:00am 4.7 CALM 0 0 1020.1 - 0.0 - - 10 - - - -
25/07:30am 2.3 W 3 4 1019.7 - 0.0 - - 10 - - - -
25/07:00am 1.2 CALM 0 0 1019.4 - 0.0 - - 10 - - - -
25/06:30am 0.9 CALM 0 0 1019.2 - 0.0 - - 10 - - - -
25/06:00am 0.8 CALM 0 0 1018.9 - 0.0 - - 10 - - - -
25/05:30am 1.6 CALM 0 0 1018.7 - 0.0 - Partly cloudy 10 - - - -
25/05:00am 1.3 CALM 0 0 1018.5 - 0.0 - - 10 - - - -
25/04:30am 1.5 CALM 0 0 1018.1 - 0.0 - Partly cloudy 10 - - - -
25/04:00am 1.6 CALM 0 0 1018.0 - 0.0 - - 10 - - - -
25/03:30am 1.7 CALM 0 0 1018.0 - 0.0 - - 10 - - - -
25/03:00am 2.0 CALM 0 0 1017.9 - 0.0 - - 10 - - - -
25/02:30am 2.2 CALM 0 0 1018.0 - 0.0 - - 10 - - - -
25/02:00am 2.4 CALM 0 0 1017.9 - 0.0 - - 10 - - - -
25/01:30am 2.9 CALM 0 0 1018.1 - 0.0 - - 10 - - - -
25/01:00am 2.9 CALM 0 0 1018.2 - 0.0 - - 10 - - - -
25/12:30am 2.4 CALM 0 0 1018.1 - 0.0 - - 10 - - - -
25/12:00am 3.3 CALM 0 0 1018.1 - 0.0 - - 10 - - - -
 
Date/Time
CST
Temp
°C
Wind Pressure Rain since
9am
mm
Weather Cloud Vis
km
Sea
Height
m
Swell
Dir  Spd
kts
Gust
kts
hPa Trend Height
m
Period
s
Dir
24/11:30pm 3.6 CALM 0 0 1018.1 - 0.0 - - 10 - - - -
24/11:00pm 3.7 CALM 0 0 1018.2 - 0.0 - - 10 - - - -
24/10:30pm 3.9 CALM 0 0 1018.2 - 0.0 - - 10 - - - -
24/10:00pm 4.4 CALM 0 0 1018.3 - 0.0 - - 10 - - - -
24/09:30pm 4.6 CALM 0 0 1018.2 - 0.0 - - 10 - - - -
24/09:00pm 4.8 CALM 0 0 1018.2 - 0.0 - - 10 - - - -
24/08:30pm 6.2 CALM 0 0 1017.8 - 0.0 - - 10 - - - -
24/08:00pm 6.2 S 3 5 1017.6 - 0.0 - - 10 - - - -
24/07:30pm 7.7 SE 5 6 1017.3 - 0.0 - Partly cloudy 10 - - - -
24/07:00pm 8.2 SE 5 6 1017.3 - 0.0 - - 10 - - - -
24/06:30pm 9.1 SSE 5 6 1016.9 - 0.0 - Partly cloudy 10 - - - -
24/06:00pm 9.8 SSE 6 8 1016.4 - 0.0 - - 10 - - - -
24/05:30pm 10.8 SE 7 8 1016.1 - 0.0 - Partly cloudy 10 - - - -
24/05:00pm 11.9 SSE 6 8 1015.9 - 0.0 - Partly cloudy 10 - - - -
24/04:30pm 12.7 E 7 11 1015.6 - 0.0 - Cloudy 10 - - - -
24/04:00pm 12.9 ENE 8 11 1015.3 - 0.0 - Partly cloudy 10 - - - -
24/03:30pm 13.3 E 8 11 1015.3 - 0.0 - Partly cloudy 10 - - - -
24/03:00pm 13.8 ESE 8 13 1015.1 - 0.0 - Partly cloudy 10 - - - -
24/02:30pm 13.6 SE 9 14 1015.1 - 0.0 - Partly cloudy 10 - - - -
24/02:00pm 13.6 SSE 11 15 1015.2 - 0.0 - Partly cloudy 10 - - - -
24/01:30pm 15.4 E 9 13 1015.3 - 0.0 - Partly cloudy 10 - - - -
24/01:00pm 15.4 ENE 9 12 1015.5 - 0.0 - - 10 - - - -
24/12:30pm 14.7 NE 9 13 1015.8 - 0.0 - - 10 - - - -
24/12:00pm 15.1 ENE 9 12 1016.1 - 0.0 - - 10 - - - -
24/11:30am 14.7 E 8 12 1016.3 - 0.0 - - 10 - - - -
24/11:00am 14.5 ENE 9 11 1016.3 - 0.0 - - 10 - - - -
24/10:30am 13.8 E 10 13 1016.2 - 0.0 - - 10 - - - -
24/10:00am 13.0 E 10 12 1016.3 - 0.0 - - 10 - - - -
24/09:30am 12.0 E 8 11 1016.5 - 0.0 - - 10 - - - -
24/09:00am 9.5 CALM 0 0 1016.6 - 0.0 - - 10 - - - -
24/08:30am 6.2 CALM 0 0 1016.6 - 0.0 - Partly cloudy 10 - - - -
24/08:00am 3.4 CALM 0 0 1016.6 - 0.0 - Partly cloudy 10 - - - -
24/07:30am 2.4 WSW 4 5 1016.5 - 0.0 - Partly cloudy 10 - - - -
24/07:00am 2.3 NW 4 5 1016.3 - 0.0 - - 10 - - - -
24/06:30am 2.1 WNW 3 4 1016.1 - 0.0 - - 10 - - - -
24/06:00am 2.2 WNW 3 4 1015.9 - 0.0 - - 10 - - - -
24/05:30am 2.6 W 3 4 1015.8 - 0.0 - Partly cloudy 10 - - - -
24/05:00am 2.6 W 3 4 1015.9 - 0.0 - Partly cloudy 10 - - - -
24/04:30am 2.7 W 4 4 1015.9 - 0.0 - - 10 - - - -
24/04:00am 3.2 W 4 5 1015.7 - 0.0 - - 10 - - - -
24/03:30am 2.7 W 4 5 1015.8 - 0.0 - - 10 - - - -
24/03:00am 3.1 W 4 5 1015.8 - 0.0 - - 10 - - - -
24/02:30am 3.8 W 4 4 1016.1 - 0.0 - - 10 - - - -
24/02:00am 3.6 WSW 4 5 1016.2 - 0.0 - - 10 - - - -
24/01:30am 3.5 WSW 4 5 1016.4 - 0.0 - - 10 - - - -
24/01:00am 3.9 WSW 3 4 1016.4 - 0.0 - - 10 - - - -
24/12:30am 4.5 WNW 5 6 1016.6 - 0.0 - - 10 - - - -
24/12:00am 4.9 NNW 3 4 1016.6 - 0.0 - - 10 - - - -
 
Date/Time
CST
Temp
°C
Wind Pressure Rain since
9am
mm
Weather Cloud Vis
km
Sea
Height
m
Swell
Dir  Spd
kts
Gust
kts
hPa Trend Height
m
Period
s
Dir
23/11:30pm 4.7 W 4 5 1016.8 - 0.0 - - 10 - - - -
23/11:00pm 5.3 WSW 3 5 1016.9 - 0.0 - - 10 - - - -
23/10:30pm 5.1 SW 4 5 1017.0 - 0.0 - - 10 - - - -
23/10:00pm 5.1 SSW 4 4 1017.1 - 0.0 - - 10 - - - -
23/09:30pm 6.2 SSW 3 3 1017.2 - 0.0 - - 10 - - - -
23/09:00pm 6.3 SSW 3 4 1017.0 - 0.0 - - 10 - - - -
23/08:30pm 7.5 SSW 2 4 1017.0 - 0.0 - - 10 - - - -
23/08:00pm 7.7 S 4 5 1016.9 - 0.0 - - 10 - - - -
23/07:30pm 8.9 SE 3 4 1016.7 - 0.0 - - 10 - - - -
23/07:00pm 9.4 ESE 5 6 1016.4 - 0.0 - - 10 - - - -
23/06:30pm 10.3 SE 8 9 1016.3 - 0.0 - - 10 - - - -
23/06:00pm 10.7 SE 7 9 1016.3 - 0.0 - Mostly cloudy 10 - - - -
23/05:30pm 11.7 SE 7 8 1016.3 - 0.0 - Partly cloudy 10 - - - -
23/05:00pm 12.5 E 6 8 1016.3 - 0.0 - - 10 - - - -
23/04:30pm 12.9 ENE 7 8 1016.2 - 0.0 - - 10 - - - -
23/04:00pm 12.8 E 7 10 1016.1 - 0.0 - Partly cloudy 10 - - - -
23/03:30pm 14.0 ESE 9 12 1016.0 - 0.0 - Partly cloudy 10 - - - -
23/03:00pm 14.0 E 7 11 1015.9 - 0.0 - Partly cloudy 10 - - - -
23/02:30pm 15.0 ENE 7 11 1016.0 - 0.0 - Partly cloudy 10 - - - -
23/02:00pm 14.2 NE 8 11 1016.1 - 0.0 - - 10 - - - -
23/01:30pm 14.6 ENE 8 12 1016.2 - 0.0 - Partly cloudy 10 - - - -
23/01:00pm 14.1 ENE 10 13 1016.4 - 0.0 - Partly cloudy 10 - - - -
23/12:30pm 14.0 ENE 10 13 1016.7 - 0.0 - Partly cloudy 10 - - - -
23/12:00pm 14.4 ENE 11 15 1016.9 - 0.0 - Partly cloudy 10 - - - -
23/11:30am 14.6 ENE 9 12 1017.3 - 0.0 - Partly cloudy 10 - - - -
23/11:00am 14.1 ENE 9 13 1017.5 - 0.0 - Partly cloudy 10 - - - -
23/10:30am 13.8 ENE 8 11 1017.7 - 0.0 - Partly cloudy 10 - - - -
23/10:00am 12.1 E 7 10 1017.8 - 0.0 - Cloudy 10 - - - -
23/09:30am 11.8 CALM 0 0 1017.7 - 0.0 - Partly cloudy 10 - - - -
23/09:00am 9.4 CALM 0 0 1017.7 - 5.6 - Partly cloudy 10 - - - -
23/08:30am 7.5 CALM 0 0 1017.4 - 5.6 - Partly cloudy 10 - - - -
23/08:00am 6.2 CALM 0 0 1017.1 - 5.6 - - 10 - - - -
23/07:30am 4.0 CALM 0 0 1016.9 - 5.6 - Partly cloudy 10 - - - -
23/07:00am 2.7 CALM 0 0 1016.9 - 5.6 - - 10 - - - -
23/06:30am 2.9 CALM 0 0 1016.8 - 5.6 - - 10 - - - -
23/06:00am 3.1 CALM 0 0 1016.6 - 5.6 - - 10 - - - -
23/05:35am 2.9 CALM 0 0 1016.5 - 5.6 - - 10 - - - -
23/05:30am 2.7 CALM 0 0 1016.5 - 5.6 - - 9 - - - -
23/05:19am 2.7 CALM 0 0 1016.5 - 5.6 - - 5 - - - -
23/05:00am 3.0 CALM 0 0 1016.6 - 5.6 - - 10 - - - -
23/04:30am 3.5 CALM 0 0 1016.4 - 5.6 - - 10 - - - -
23/04:00am 3.1 CALM 0 0 1016.3 - 5.6 - - 10 - - - -
23/03:44am 3.4 CALM 0 0 1016.3 - 5.6 - - 10 - - - -
23/03:30am 3.6 CALM 0 0 1016.3 - 5.6 - - 2 - - - -
23/03:23am 3.3 CALM 0 0 1016.3 - 5.6 - - 5 - - - -
23/03:22am 3.4 CALM 0 0 1016.3 - 5.6 - - 8 - - - -
23/03:03am 3.6 CALM 0 0 1016.4 - 5.6 - - 5 - - - -
23/03:00am 3.7 CALM 0 0 1016.4 - 5.6 - - 10 - - - -
23/02:36am 4.0 CALM 0 0 1016.4 - 5.6 - - 10 - - - -
23/02:30am 3.9 CALM 0 0 1016.4 - 5.6 - - 10 - - - -
23/02:23am 3.9 CALM 0 0 1016.4 - 5.6 - - 4 - - - -
23/02:00am 4.2 CALM 0 0 1016.4 - 5.6 - - 10 - - - -
23/01:30am 4.4 CALM 0 0 1016.3 - 5.6 - - 10 - - - -
23/01:00am 4.2 CALM 0 0 1016.4 - 5.6 - Partly cloudy 10 - - - -
23/12:37am 4.9 CALM 0 0 1016.3 - 5.6 - Partly cloudy 8 - - - -
23/12:30am 4.7 CALM 0 0 1016.4 - 5.6 - Partly cloudy 10 - - - -
23/12:00am 4.7 CALM 0 0 1016.4 - 5.6 - Mostly clear 2 - - - -
 
Date/Time
CST
Temp
°C
Wind Pressure Rain since
9am
mm
Weather Cloud Vis
km
Sea
Height
m
Swell
Dir  Spd
kts
Gust
kts
hPa Trend Height
m
Period
s
Dir
22/11:30pm 5.2 CALM 0 0 1016.4 - 5.6 - - 4 - - - -
22/11:11pm 5.9 CALM 0 0 1016.4 - 5.6 - - 5 - - - -
22/11:08pm 5.9 CALM 0 0 1016.4 - 5.6 - - 7 - - - -
22/11:00pm 5.6 CALM 0 0 1016.5 - 5.6 - - 10 - - - -
22/10:30pm 5.7 CALM 0 0 1016.6 - 5.6 - - 5 - - - -
22/10:00pm 6.2 CALM 0 0 1016.7 - 5.6 - - 2 - - - -
22/09:57pm 6.4 CALM 0 0 1016.7 - 5.6 - - 5 - - - -
22/09:30pm 6.7 CALM 0 0 1016.7 - 5.6 - - 10 - - - -
22/09:00pm 6.7 CALM 0 0 1016.5 - 5.6 - - 10 - - - -
22/08:30pm 6.9 CALM 0 0 1016.3 - 5.6 - Partly cloudy 10 - - - -
22/08:00pm 7.7 CALM 0 0 1016.1 - 5.6 - - 10 - - - -
22/07:30pm 7.7 CALM 0 0 1015.7 - 5.6 - Partly cloudy 10 - - - -

Other Formats:

Comma delimited format used in spreadsheet applications
http://www.bom.gov.au/fwo/IDS60701/IDS60701.95807.axf

JavaScript Object Notation format (JSON) in row-major order
http://www.bom.gov.au/fwo/IDS60701/IDS60701.95807.json